Kalida, Ohio
Current Conditions -  °F | °C
As of 8:53 AM on Sunday 25 Jan 2015 (Local Time) from KAOH Reporting Station
Haze Haze  
Wind Chill: 35°   Ceiling: 1400
Heat Index: 35°   Visibility: 3mi
Dew Point: 31°   Wind: 0mph
Humidity: 85%   Direction: NA
Pressure: 29.73"   Gusts: NA
Location:  40.98°N, 84.2°W
Report Text: KAOH 251353Z AUTO 00000KT 3SM BR OVC014 02/M01 A2973 RMK AO2 SLP075 T00171006
Loading
Personal Weather Stations






























Interactive Weather Map New forecast layout! Learn more

10-Day Weather Forecast

Advertisements
Track Severe Weather on mobile